Time,TemperatureF,DewpointF,PressureIn,WindDirection,WindDirectionDegrees,WindSpeedMPH,WindSpeedGustMPH,Humidity,HourlyPrecipIn,Conditions,Clouds,dailyrainin,SoftwareType,DateUTC
2013-07-11 00:01:00,80.5,63.6,29.21,SSE,158,1.6,2.7,56,0.00,,,0.00,WSDL version 426,2013-07-11 05:01:00,
2013-07-11 00:06:00,79.6,62.8,29.18,SSE,164,2.0,2.7,57,0.00,,,0.00,WSDL version 426,2013-07-11 05:06:00,
2013-07-11 00:11:00,79.0,62.9,29.18,South,170,2.4,3.6,58,0.00,,,0.00,WSDL version 426,2013-07-11 05:11:00,
2013-07-11 00:16:00,78.9,63.9,29.18,SSE,166,2.6,4.3,60,0.00,,,0.00,WSDL version 426,2013-07-11 05:16:00,
2013-07-11 00:21:00,79.1,64.2,29.21,South,172,2.2,4.3,60,0.00,,,0.00,WSDL version 426,2013-07-11 05:21:00,
2013-07-11 00:26:00,79.1,63.9,29.21,SSE,158,1.9,3.1,59,0.00,,,0.00,WSDL version 426,2013-07-11 05:26:00,
2013-07-11 00:31:00,78.9,63.4,29.21,South,177,1.4,3.1,60,0.00,,,0.00,WSDL version 426,2013-07-11 05:31:00,
2013-07-11 00:36:00,78.8,64.4,29.21,East,82,5.6,8.1,64,0.00,,,0.00,WSDL version 426,2013-07-11 05:36:00,
2013-07-11 00:41:00,78.7,65.0,29.21,South,183,2.7,8.1,62,0.00,,,0.00,WSDL version 426,2013-07-11 05:41:00,
2013-07-11 00:46:00,79.1,65.0,29.21,SSW,211,1.8,7.2,62,0.00,,,0.00,WSDL version 426,2013-07-11 05:46:00,
2013-07-11 00:51:00,79.6,64.9,29.21,SE,132,0.4,3.1,60,0.00,,,0.00,WSDL version 426,2013-07-11 05:51:00,
2013-07-11 00:56:00,79.3,64.8,29.21,SE,124,4.2,7.8,61,0.00,,,0.00,WSDL version 426,2013-07-11 05:56:00,
2013-07-11 01:01:00,79.2,64.6,29.21,South,185,1.8,7.8,61,0.00,,,0.00,WSDL version 426,2013-07-11 06:01:00,
2013-07-11 01:06:00,79.5,64.8,29.23,ESE,104,1.2,3.6,61,0.00,,,0.00,WSDL version 426,2013-07-11 06:06:00,
2013-07-11 01:11:00,80.1,65.3,29.23,ENE,68,1.9,2.5,60,0.00,,,0.00,WSDL version 426,2013-07-11 06:11:00,
2013-07-11 01:16:00,79.9,64.3,29.23,ENE,68,0.2,2.5,59,0.00,,,0.00,WSDL version 426,2013-07-11 06:16:00,
2013-07-11 01:21:00,79.5,63.8,29.23,East,87,1.0,2.2,59,0.00,,,0.00,WSDL version 426,2013-07-11 06:21:00,
2013-07-11 01:26:00,79.0,63.8,29.23,SSW,194,2.0,2.7,60,0.00,,,0.00,WSDL version 426,2013-07-11 06:26:00,
2013-07-11 01:31:00,79.1,65.0,29.23,NE,48,1.6,2.9,62,0.00,,,0.00,WSDL version 426,2013-07-11 06:31:00,
2013-07-11 01:36:00,79.3,65.1,29.23,East,90,0.2,2.9,61,0.00,,,0.00,WSDL version 426,2013-07-11 06:36:00,
2013-07-11 01:41:00,78.8,64.3,29.23,East,90,0.0,2.7,61,0.00,,,0.00,WSDL version 426,2013-07-11 06:41:00,
2013-07-11 01:46:00,78.6,64.0,29.23,East,85,1.9,3.6,61,0.00,,,0.00,WSDL version 426,2013-07-11 06:46:00,
2013-07-11 01:51:00,78.2,64.1,29.23,ENE,68,2.1,3.6,62,0.00,,,0.00,WSDL version 426,2013-07-11 06:51:00,
2013-07-11 01:56:00,78.4,65.1,29.23,West,264,2.3,3.6,64,0.00,,,0.00,WSDL version 426,2013-07-11 06:56:00,
2013-07-11 02:01:00,78.7,65.0,29.23,East,96,2.3,3.1,62,0.00,,,0.00,WSDL version 426,2013-07-11 07:01:00,
2013-07-11 02:06:00,78.4,64.3,29.23,NNE,23,1.4,2.9,62,0.00,,,0.00,WSDL version 426,2013-07-11 07:06:00,
2013-07-11 02:11:00,78.0,64.3,29.23,ENE,68,1.1,2.7,63,0.00,,,0.00,WSDL version 426,2013-07-11 07:11:00,
2013-07-11 02:16:00,77.8,64.2,29.23,ENE,68,2.3,2.9,63,0.00,,,0.00,WSDL version 426,2013-07-11 07:16:00,
2013-07-11 02:21:00,77.9,64.9,29.23,ENE,68,2.0,2.9,66,0.00,,,0.00,WSDL version 426,2013-07-11 07:21:00,
2013-07-11 02:26:00,78.5,65.7,29.23,ENE,68,0.4,2.7,64,0.00,,,0.00,WSDL version 426,2013-07-11 07:26:00,
2013-07-11 02:31:00,78.1,64.6,29.23,ENE,68,0.0,2.0,63,0.00,,,0.00,WSDL version 426,2013-07-11 07:31:00,
2013-07-11 02:36:00,77.8,64.2,29.23,ENE,68,1.6,2.2,63,0.00,,,0.00,WSDL version 426,2013-07-11 07:36:00,
2013-07-11 02:42:00,77.5,64.2,29.23,ESE,113,1.2,2.7,64,0.00,,,0.00,WSDL version 426,2013-07-11 07:42:00,
2013-07-11 02:47:00,77.5,64.9,29.23,ESE,113,0.0,2.7,67,0.00,,,0.00,WSDL version 426,2013-07-11 07:47:00,
2013-07-11 02:52:00,78.1,65.9,29.23,SSE,160,0.9,1.3,66,0.00,,,0.00,WSDL version 426,2013-07-11 07:52:00,
2013-07-11 02:57:00,77.7,65.0,29.23,East,94,1.9,2.7,65,0.00,,,0.00,WSDL version 426,2013-07-11 07:57:00,
2013-07-11 03:03:00,77.3,64.6,29.23,NE,48,2.7,3.4,65,0.00,,,0.00,WSDL version 426,2013-07-11 08:03:00,
2013-07-11 03:09:00,77.0,64.5,29.23,ESE,113,2.0,3.4,66,0.00,,,0.00,WSDL version 426,2013-07-11 08:09:00,
2013-07-11 03:14:00,76.9,64.8,29.23,ESE,103,1.9,3.4,67,0.00,,,0.00,WSDL version 426,2013-07-11 08:14:00,
2013-07-11 03:24:00,-999.0,-99.9,-100.00,ESE,113,0.9,1.6,-999,0.00,,,0.00,WSDL version 426,2013-07-11 08:24:00,
2013-07-11 03:29:00,77.5,65.4,29.23,ESE,113,1.0,2.0,66,0.00,,,0.00,WSDL version 426,2013-07-11 08:29:00,
2013-07-11 03:34:00,77.1,64.8,29.23,ESE,113,1.2,2.0,66,0.00,,,0.00,WSDL version 426,2013-07-11 08:34:00,
2013-07-11 03:40:00,77.0,64.8,29.23,ESE,113,0.6,2.0,66,0.00,,,0.00,WSDL version 426,2013-07-11 08:40:00,
2013-07-11 03:45:00,76.9,65.1,29.23,ESE,121,0.0,1.6,68,0.00,,,0.00,WSDL version 426,2013-07-11 08:45:00,
2013-07-11 03:50:00,77.4,66.4,29.23,SE,128,0.0,1.6,68,0.00,,,0.00,WSDL version 426,2013-07-11 08:50:00,
2013-07-11 03:55:00,77.5,65.8,29.23,ENE,68,0.0,2.0,67,0.00,,,0.00,WSDL version 426,2013-07-11 08:55:00,
2013-07-11 04:01:00,77.0,65.1,29.23,ENE,68,0.0,2.0,67,0.00,,,0.00,WSDL version 426,2013-07-11 09:01:00,
2013-07-11 04:06:00,76.4,64.8,29.23,ENE,68,1.8,2.0,68,0.00,,,0.00,WSDL version 426,2013-07-11 09:06:00,
2013-07-11 04:11:00,75.8,64.6,29.23,East,98,1.5,2.5,69,0.00,,,0.00,WSDL version 426,2013-07-11 09:11:00,
2013-07-11 04:16:00,75.6,64.9,29.23,SSW,200,1.4,2.5,71,0.00,,,0.00,WSDL version 426,2013-07-11 09:16:00,
2013-07-11 04:21:00,76.0,66.9,29.23,South,180,0.0,2.2,74,0.00,,,0.00,WSDL version 426,2013-07-11 09:21:00,
2013-07-11 04:26:00,76.1,66.1,29.23,South,169,0.0,1.6,71,0.00,,,0.00,WSDL version 426,2013-07-11 09:26:00,
2013-07-11 04:31:00,75.8,65.4,29.23,ENE,68,1.6,2.2,70,0.00,,,0.00,WSDL version 426,2013-07-11 09:31:00,
2013-07-11 04:36:00,75.7,65.2,29.23,ENE,68,0.9,2.2,70,0.00,,,0.00,WSDL version 426,2013-07-11 09:36:00,
2013-07-11 04:41:00,75.5,65.0,29.23,ENE,68,0.7,2.0,70,0.00,,,0.00,WSDL version 426,2013-07-11 09:41:00,
2013-07-11 04:46:00,75.6,65.6,29.23,NE,53,1.8,2.2,74,0.00,,,0.00,WSDL version 426,2013-07-11 09:46:00,
2013-07-11 04:51:00,76.2,67.3,29.23,NE,45,2.2,2.7,73,0.00,,,0.00,WSDL version 426,2013-07-11 09:51:00,
2013-07-11 04:56:00,76.4,66.6,29.23,East,79,1.6,2.7,71,0.00,,,0.00,WSDL version 426,2013-07-11 09:56:00,
2013-07-11 05:01:00,76.2,65.9,29.23,SE,133,2.1,2.9,71,0.00,,,0.00,WSDL version 426,2013-07-11 10:01:00,
2013-07-11 05:06:00,75.8,65.7,29.21,ESE,109,2.6,3.1,70,0.00,,,0.00,WSDL version 426,2013-07-11 10:06:00,
2013-07-11 05:11:00,75.6,65.5,29.21,ESE,113,0.0,3.1,71,0.00,,,0.00,WSDL version 426,2013-07-11 10:11:00,
2013-07-11 05:16:00,75.8,66.2,29.21,SE,135,0.0,1.3,73,0.00,,,0.00,WSDL version 426,2013-07-11 10:16:00,
2013-07-11 05:21:00,76.4,66.9,29.21,SSE,158,0.0,0.0,72,0.00,,,0.00,WSDL version 426,2013-07-11 10:21:00,
2013-07-11 05:26:00,76.0,65.6,29.21,SSE,158,0.0,0.0,70,0.00,,,0.00,WSDL version 426,2013-07-11 10:26:00,
2013-07-11 05:31:00,75.4,65.0,29.21,SSE,158,0.0,0.0,70,0.00,,,0.00,WSDL version 426,2013-07-11 10:31:00,
2013-07-11 05:36:00,75.2,64.8,29.23,SSE,158,0.0,0.0,70,0.00,,,0.00,WSDL version 426,2013-07-11 10:36:00,
2013-07-11 05:41:00,75.2,64.8,29.23,SSE,158,0.0,0.0,70,0.00,,,0.00,WSDL version 426,2013-07-11 10:41:00,
2013-07-11 05:46:00,75.1,64.9,29.23,SSE,158,1.1,2.0,71,0.00,,,0.00,WSDL version 426,2013-07-11 10:46:00,
2013-07-11 05:51:00,75.0,65.0,29.23,SSE,158,1.2,2.0,71,0.00,,,0.00,WSDL version 426,2013-07-11 10:51:00,
2013-07-11 05:56:00,74.9,65.2,29.23,ESE,110,1.4,2.0,72,0.00,,,0.00,WSDL version 426,2013-07-11 10:56:00,
2013-07-11 06:01:00,74.8,65.2,29.23,East,96,2.9,3.8,72,0.00,,,0.00,WSDL version 426,2013-07-11 11:01:00,
2013-07-11 06:06:00,74.8,65.6,29.23,ESE,108,2.0,3.8,73,0.00,,,0.00,WSDL version 426,2013-07-11 11:06:00,
2013-07-11 06:11:00,74.8,65.6,29.23,ESE,113,1.6,3.1,73,0.00,,,0.00,WSDL version 426,2013-07-11 11:11:00,
2013-07-11 06:16:00,74.6,65.4,29.23,SE,146,0.4,3.1,73,0.00,,,0.00,WSDL version 426,2013-07-11 11:16:00,
2013-07-11 06:21:00,74.5,65.3,29.23,ENE,68,0.0,2.7,73,0.00,,,0.00,WSDL version 426,2013-07-11 11:21:00,
2013-07-11 06:26:00,74.5,65.4,29.23,ENE,68,2.3,2.9,74,0.00,,,0.00,WSDL version 426,2013-07-11 11:26:00,
2013-07-11 06:31:00,74.5,65.7,29.23,ENE,73,2.8,4.0,74,0.00,,,0.00,WSDL version 426,2013-07-11 11:31:00,
2013-07-11 06:36:00,74.6,65.8,29.23,ENE,71,3.4,5.4,74,0.00,,,0.00,WSDL version 426,2013-07-11 11:36:00,
2013-07-11 06:41:00,74.8,66.2,29.23,East,83,3.1,5.4,75,0.00,,,0.00,WSDL version 426,2013-07-11 11:41:00,
2013-07-11 06:46:00,74.8,66.4,29.23,East,80,3.2,4.7,75,0.00,,,0.00,WSDL version 426,2013-07-11 11:46:00,
2013-07-11 06:51:00,74.8,66.4,29.23,East,101,1.9,4.7,75,0.00,,,0.00,WSDL version 426,2013-07-11 11:51:00,
2013-07-11 06:56:00,75.0,66.6,29.23,East,80,2.5,4.7,75,0.00,,,0.00,WSDL version 426,2013-07-11 11:56:00,
2013-07-11 07:01:00,75.1,66.7,29.23,ENE,75,2.9,4.7,75,0.00,,,0.00,WSDL version 426,2013-07-11 12:01:00,
2013-07-11 07:06:00,75.3,66.8,29.23,East,80,2.1,4.3,75,0.00,,,0.00,WSDL version 426,2013-07-11 12:06:00,
2013-07-11 07:11:00,75.5,67.0,29.23,SE,127,2.2,3.6,74,0.00,,,0.00,WSDL version 426,2013-07-11 12:11:00,
2013-07-11 07:16:00,75.7,66.8,29.23,ESE,113,2.4,4.0,74,0.00,,,0.00,WSDL version 426,2013-07-11 12:16:00,
2013-07-11 07:21:00,76.0,67.2,29.23,ESE,110,3.0,4.3,75,0.00,,,0.00,WSDL version 426,2013-07-11 12:21:00,
2013-07-11 07:26:00,76.3,67.6,29.23,ESE,104,2.3,4.3,74,0.00,,,0.00,WSDL version 426,2013-07-11 12:26:00,
2013-07-11 07:31:00,76.6,67.7,29.23,ESE,104,3.0,4.3,74,0.00,,,0.00,WSDL version 426,2013-07-11 12:31:00,
2013-07-11 07:36:00,77.0,67.8,29.23,ESE,121,2.8,4.3,73,0.00,,,0.00,WSDL version 426,2013-07-11 12:36:00,
2013-07-11 07:41:00,77.4,67.8,29.23,East,100,3.0,4.7,72,0.00,,,0.00,WSDL version 426,2013-07-11 12:41:00,
2013-07-11 07:46:00,77.8,67.7,29.23,SE,129,3.5,5.4,71,0.00,,,0.00,WSDL version 426,2013-07-11 12:46:00,
2013-07-11 07:51:00,78.4,67.8,29.23,ESE,115,2.8,5.4,70,0.00,,,0.00,WSDL version 426,2013-07-11 12:51:00,
2013-07-11 07:56:00,79.0,67.9,29.23,SE,125,3.0,4.9,69,0.00,,,0.00,WSDL version 426,2013-07-11 12:56:00,
2013-07-11 08:01:00,79.7,67.7,29.23,ESE,104,3.9,5.8,66,0.00,,,0.00,WSDL version 426,2013-07-11 13:01:00,
2013-07-11 08:07:00,80.3,67.5,29.26,SE,145,4.1,5.6,64,0.00,,,0.00,WSDL version 426,2013-07-11 13:07:00,
2013-07-11 08:12:00,80.6,66.9,29.26,SE,132,2.8,6.3,63,0.00,,,0.00,WSDL version 426,2013-07-11 13:12:00,
2013-07-11 08:17:00,81.1,67.3,29.26,SSE,153,2.4,6.3,62,0.00,,,0.00,WSDL version 426,2013-07-11 13:17:00,
2013-07-11 08:22:00,81.6,66.9,29.26,SSE,149,3.5,5.6,60,0.00,,,0.00,WSDL version 426,2013-07-11 13:22:00,
2013-07-11 08:27:00,82.1,66.9,29.26,ESE,109,3.5,5.8,60,0.00,,,0.00,WSDL version 426,2013-07-11 13:27:00,
2013-07-11 08:32:00,82.7,66.9,29.26,South,172,2.8,5.8,58,0.00,,,0.00,WSDL version 426,2013-07-11 13:32:00,
2013-07-11 08:37:00,83.0,66.4,29.23,SE,143,2.9,6.3,57,0.00,,,0.00,WSDL version 426,2013-07-11 13:37:00,
2013-07-11 08:42:00,83.4,65.8,29.23,SSE,164,4.1,6.3,55,0.00,,,0.00,WSDL version 426,2013-07-11 13:42:00,
2013-07-11 08:47:00,83.6,66.0,29.23,SSE,168,2.9,5.8,55,0.00,,,0.00,WSDL version 426,2013-07-11 13:47:00,
2013-07-11 08:53:00,84.0,65.8,29.23,South,190,2.9,4.3,54,0.00,,,0.00,WSDL version 426,2013-07-11 13:53:00,
2013-07-11 08:59:00,84.3,65.3,29.23,SE,135,2.0,4.3,53,0.00,,,0.00,WSDL version 426,2013-07-11 13:59:00,
2013-07-11 09:04:00,84.4,65.1,29.23,South,174,2.4,4.0,52,0.00,,,0.00,WSDL version 426,2013-07-11 14:04:00,
2013-07-11 09:09:00,84.5,64.5,29.23,South,183,3.8,4.9,51,0.00,,,0.00,WSDL version 426,2013-07-11 14:09:00,
2013-07-11 09:14:00,84.7,64.3,29.23,SSE,158,3.3,5.4,51,0.00,,,0.00,WSDL version 426,2013-07-11 14:14:00,
2013-07-11 09:19:00,85.2,64.2,29.23,SSW,197,4.7,6.5,48,0.00,,,0.00,WSDL version 426,2013-07-11 14:19:00,
2013-07-11 09:24:00,85.3,63.6,29.23,SSE,152,3.6,6.5,49,0.00,,,0.00,WSDL version 426,2013-07-11 14:24:00,
2013-07-11 09:30:00,86.0,64.0,29.23,South,175,3.8,6.5,48,0.00,,,0.00,WSDL version 426,2013-07-11 14:30:00,
2013-07-11 09:35:00,86.4,63.8,29.23,South,177,4.4,6.5,47,0.00,,,0.00,WSDL version 426,2013-07-11 14:35:00,
2013-07-11 09:40:00,86.4,63.2,29.23,SSW,193,3.3,6.5,46,0.00,,,0.00,WSDL version 426,2013-07-11 14:40:00,
2013-07-11 09:45:00,86.4,63.1,29.23,SW,217,3.1,5.6,45,0.00,,,0.00,WSDL version 426,2013-07-11 14:45:00,
2013-07-11 09:50:00,86.5,63.0,29.23,SSW,193,3.0,5.8,46,0.00,,,0.00,WSDL version 426,2013-07-11 14:50:00,
2013-07-11 09:55:00,86.8,63.1,29.23,SSW,208,3.6,5.8,45,0.00,,,0.00,WSDL version 426,2013-07-11 14:55:00,
2013-07-11 10:00:00,87.0,63.1,29.23,SW,215,2.7,5.4,45,0.00,,,0.00,WSDL version 426,2013-07-11 15:00:00,
2013-07-11 10:06:00,87.4,62.9,29.23,WSW,251,2.8,4.9,45,0.00,,,0.00,WSDL version 426,2013-07-11 15:06:00,
2013-07-11 10:13:00,87.9,63.1,29.23,SSW,209,2.7,4.3,44,0.00,,,0.00,WSDL version 426,2013-07-11 15:13:00,
2013-07-11 10:18:00,88.5,63.8,29.23,East,90,1.8,4.3,44,0.00,,,0.00,WSDL version 426,2013-07-11 15:18:00,
2013-07-11 10:23:00,89.1,63.8,29.23,NNW,328,2.6,3.8,43,0.00,,,0.00,WSDL version 426,2013-07-11 15:23:00,
2013-07-11 10:28:00,89.1,63.4,29.23,WNW,293,2.0,3.8,43,0.00,,,0.00,WSDL version 426,2013-07-11 15:28:00,
2013-07-11 10:33:00,89.8,63.0,29.23,NW,323,3.5,4.5,39,0.00,,,0.00,WSDL version 426,2013-07-11 15:33:00,
2013-07-11 10:38:00,90.4,62.1,29.23,SW,233,2.9,4.5,39,0.00,,,0.00,WSDL version 426,2013-07-11 15:38:00,
2013-07-11 10:46:00,90.9,62.5,29.23,SSW,208,2.1,4.0,39,0.00,,,0.00,WSDL version 426,2013-07-11 15:46:00,
2013-07-11 10:54:00,91.7,62.5,29.23,WNW,298,3.4,5.6,37,0.00,,,0.00,WSDL version 426,2013-07-11 15:54:00,
2013-07-11 10:59:00,91.9,60.4,29.23,NNW,328,4.0,5.6,34,0.00,,,0.00,WSDL version 426,2013-07-11 15:59:00,
2013-07-11 11:04:00,92.8,61.2,29.23,West,275,3.6,5.6,35,0.00,,,0.00,WSDL version 426,2013-07-11 16:04:00,
2013-07-11 11:09:00,93.3,60.8,29.23,West,260,3.2,5.8,33,0.00,,,0.00,WSDL version 426,2013-07-11 16:09:00,
2013-07-11 11:14:00,93.5,61.1,29.23,SW,231,2.5,5.8,35,0.00,,,0.00,WSDL version 426,2013-07-11 16:14:00,
2013-07-11 11:19:00,93.4,60.8,29.23,NW,326,3.3,5.8,33,0.00,,,0.00,WSDL version 426,2013-07-11 16:19:00,
2013-07-11 11:24:00,93.9,60.7,29.23,North,349,4.5,6.0,33,0.00,,,0.00,WSDL version 426,2013-07-11 16:24:00,
2013-07-11 11:29:00,94.4,60.3,29.23,NNW,338,2.7,6.0,33,0.00,,,0.00,WSDL version 426,2013-07-11 16:29:00,
2013-07-11 11:34:00,94.6,61.2,29.23,NNW,329,2.9,4.7,33,0.00,,,0.00,WSDL version 426,2013-07-11 16:34:00,
2013-07-11 11:39:00,94.9,60.8,29.23,WNW,293,3.9,6.9,32,0.00,,,0.00,WSDL version 426,2013-07-11 16:39:00,
2013-07-11 11:44:00,95.5,60.3,29.23,NE,35,3.0,6.9,31,0.00,,,0.00,WSDL version 426,2013-07-11 16:44:00,
2013-07-11 11:49:00,96.6,61.0,29.23,NNW,348,5.9,10.5,31,0.00,,,0.00,WSDL version 426,2013-07-11 16:49:00,
2013-07-11 11:54:00,97.1,61.2,29.23,North,360,5.3,10.5,31,0.00,,,0.00,WSDL version 426,2013-07-11 16:54:00,
2013-07-11 12:00:00,97.4,61.3,29.23,NE,48,6.5,8.5,30,0.00,,,0.00,WSDL version 426,2013-07-11 17:00:00,
2013-07-11 12:06:00,98.4,60.8,29.23,NE,51,4.6,8.5,29,0.00,,,0.00,WSDL version 426,2013-07-11 17:06:00,
2013-07-11 12:11:00,98.9,60.3,29.23,NE,51,4.0,8.7,29,0.00,,,0.00,WSDL version 426,2013-07-11 17:11:00,
2013-07-11 12:16:00,99.4,61.3,29.23,NE,45,5.7,11.0,29,0.00,,,0.00,WSDL version 426,2013-07-11 17:16:00,
2013-07-11 12:21:00,99.5,61.3,29.23,ENE,68,5.3,11.0,28,0.00,,,0.00,WSDL version 426,2013-07-11 17:21:00,
2013-07-11 12:26:00,99.3,60.5,29.23,ENE,58,4.8,8.7,28,0.00,,,0.00,WSDL version 426,2013-07-11 17:26:00,
2013-07-11 12:31:00,99.2,59.4,29.23,North,10,4.7,9.2,27,0.00,,,0.00,WSDL version 426,2013-07-11 17:31:00,
2013-07-11 12:37:00,98.6,59.6,29.23,NE,34,4.5,8.1,28,0.00,,,0.00,WSDL version 426,2013-07-11 17:37:00,
2013-07-11 12:42:00,98.0,59.4,29.23,NE,48,6.4,8.1,28,0.00,,,0.00,WSDL version 426,2013-07-11 17:42:00,
2013-07-11 12:48:00,99.1,59.5,29.23,NE,51,6.3,8.7,27,0.00,,,0.00,WSDL version 426,2013-07-11 17:48:00,
2013-07-11 12:53:00,100.0,60.2,29.23,NNE,14,5.3,8.7,27,0.00,,,0.00,WSDL version 426,2013-07-11 17:53:00,
2013-07-11 12:58:00,100.3,60.1,29.23,NNE,20,3.1,9.8,26,0.00,,,0.00,WSDL version 426,2013-07-11 17:58:00,
2013-07-11 13:03:00,100.8,59.9,29.23,NNE,14,6.8,9.8,26,0.00,,,0.00,WSDL version 426,2013-07-11 18:03:00,
2013-07-11 13:09:00,101.4,60.2,29.23,NE,36,4.3,9.2,26,0.00,,,0.00,WSDL version 426,2013-07-11 18:09:00,
2013-07-11 13:14:00,102.1,60.7,29.23,ENE,65,4.1,7.2,26,0.00,,,0.00,WSDL version 426,2013-07-11 18:14:00,
2013-07-11 13:19:00,102.5,60.0,29.23,NE,51,4.0,8.5,25,0.00,,,0.00,WSDL version 426,2013-07-11 18:19:00,
2013-07-11 13:24:00,102.9,60.3,29.23,NNE,25,5.8,10.7,25,0.00,,,0.00,WSDL version 426,2013-07-11 18:24:00,
2013-07-11 13:29:00,103.0,60.4,29.23,NE,51,6.6,10.7,25,0.00,,,0.00,WSDL version 426,2013-07-11 18:29:00,
2013-07-11 13:34:00,102.2,59.8,29.23,NE,48,5.4,9.6,25,0.00,,,0.00,WSDL version 426,2013-07-11 18:34:00,
2013-07-11 13:39:00,101.9,59.5,29.23,ENE,73,5.9,9.8,25,0.00,,,0.00,WSDL version 426,2013-07-11 18:39:00,
2013-07-11 13:44:00,101.9,59.5,29.23,ENE,70,3.9,9.8,25,0.00,,,0.00,WSDL version 426,2013-07-11 18:44:00,
2013-07-11 13:49:00,102.0,59.6,29.23,NE,48,4.5,11.0,25,0.00,,,0.00,WSDL version 426,2013-07-11 18:49:00,
2013-07-11 13:54:00,103.0,60.4,29.23,ENE,68,6.6,11.0,25,0.00,,,0.00,WSDL version 426,2013-07-11 18:54:00,
2013-07-11 13:59:00,102.4,59.9,29.23,North,353,3.0,9.6,25,0.00,,,0.00,WSDL version 426,2013-07-11 18:59:00,
2013-07-11 14:05:00,102.3,59.8,29.23,NE,41,5.1,8.5,25,0.00,,,0.00,WSDL version 426,2013-07-11 19:05:00,
2013-07-11 14:10:00,103.2,60.6,29.23,East,83,5.9,8.9,25,0.00,,,0.00,WSDL version 426,2013-07-11 19:10:00,
2013-07-11 14:15:00,103.9,61.0,29.23,NNE,29,6.3,8.9,25,0.00,,,0.00,WSDL version 426,2013-07-11 19:15:00,
2013-07-11 14:20:00,103.5,60.6,29.23,ENE,70,5.0,10.3,25,0.00,,,0.00,WSDL version 426,2013-07-11 19:20:00,
2013-07-11 14:25:00,104.2,61.4,29.23,NNE,20,3.1,10.5,25,0.00,,,0.00,WSDL version 426,2013-07-11 19:25:00,
2013-07-11 14:30:00,104.0,61.0,29.23,ENE,65,5.2,10.5,25,0.00,,,0.00,WSDL version 426,2013-07-11 19:30:00,
2013-07-11 14:39:00,104.4,59.3,29.23,NE,42,5.2,8.7,23,0.00,,,0.00,WSDL version 426,2013-07-11 19:39:00,
2013-07-11 14:44:00,104.6,59.1,29.23,NNE,13,7.8,10.7,22,0.00,,,0.00,WSDL version 426,2013-07-11 19:44:00,
2013-07-11 14:50:00,105.4,59.0,29.21,East,84,8.2,13.2,21,0.00,,,0.00,WSDL version 426,2013-07-11 19:50:00,
2013-07-11 14:55:00,104.1,56.5,29.21,ESE,105,6.4,13.2,21,0.00,,,0.00,WSDL version 426,2013-07-11 19:55:00,
2013-07-11 15:00:00,103.5,56.7,29.21,NE,45,7.0,10.3,21,0.00,,,0.00,WSDL version 426,2013-07-11 20:00:00,
2013-07-11 15:05:00,104.0,57.4,29.21,ENE,59,3.4,10.1,22,0.00,,,0.00,WSDL version 426,2013-07-11 20:05:00,
2013-07-11 15:10:00,105.4,56.8,29.21,ENE,59,4.3,8.1,19,0.00,,,0.00,WSDL version 426,2013-07-11 20:10:00,
2013-07-11 15:15:00,106.2,55.4,29.21,NNE,23,6.2,8.5,19,0.00,,,0.00,WSDL version 426,2013-07-11 20:15:00,
2013-07-11 15:20:00,106.8,54.9,29.21,NNE,23,3.5,8.5,19,0.00,,,0.00,WSDL version 426,2013-07-11 20:20:00,
2013-07-11 15:25:00,107.4,55.5,29.21,NE,48,5.2,8.7,18,0.00,,,0.00,WSDL version 426,2013-07-11 20:25:00,
2013-07-11 15:30:00,107.1,55.3,29.21,NE,40,4.4,9.6,18,0.00,,,0.00,WSDL version 426,2013-07-11 20:30:00,
2013-07-11 15:35:00,104.8,52.8,29.18,NNE,29,4.4,9.6,18,0.00,,,0.00,WSDL version 426,2013-07-11 20:35:00,
2013-07-11 15:40:00,103.7,53.4,29.18,ENE,70,3.9,8.1,19,0.00,,,0.00,WSDL version 426,2013-07-11 20:40:00,
2013-07-11 15:45:00,102.7,52.8,29.18,NE,38,5.5,8.5,19,0.00,,,0.00,WSDL version 426,2013-07-11 20:45:00,
2013-07-11 15:51:00,101.4,52.9,29.18,NNE,28,7.1,8.5,20,0.00,,,0.00,WSDL version 426,2013-07-11 20:51:00,
2013-07-11 15:56:00,100.5,52.2,29.18,NNE,23,6.1,8.5,20,0.00,,,0.00,WSDL version 426,2013-07-11 20:56:00,
2013-07-11 16:01:00,100.3,52.0,29.18,NNE,15,2.7,8.1,20,0.00,,,0.00,WSDL version 426,2013-07-11 21:01:00,
2013-07-11 16:07:00,100.5,53.5,29.18,NE,38,3.6,7.2,22,0.00,,,0.00,WSDL version 426,2013-07-11 21:07:00,
2013-07-11 16:13:00,100.6,54.9,29.18,NNE,28,3.7,10.1,23,0.00,,,0.00,WSDL version 426,2013-07-11 21:13:00,
2013-07-11 16:19:00,102.3,57.0,29.18,ESE,115,4.6,6.5,23,0.00,,,0.00,WSDL version 426,2013-07-11 21:19:00,
2013-07-11 16:26:00,104.1,58.5,29.18,SSW,203,5.5,10.1,23,0.00,,,0.00,WSDL version 426,2013-07-11 21:26:00,
2013-07-11 16:31:00,100.6,58.9,29.18,South,174,8.2,12.3,27,0.00,,,0.00,WSDL version 426,2013-07-11 21:31:00,
2013-07-11 16:36:00,96.9,57.9,29.18,South,188,5.7,12.3,28,0.00,,,0.00,WSDL version 426,2013-07-11 21:36:00,
2013-07-11 16:41:00,95.7,57.9,29.18,South,180,4.9,8.5,29,0.00,,,0.00,WSDL version 426,2013-07-11 21:41:00,
2013-07-11 16:46:00,94.2,58.5,29.18,South,169,6.9,10.1,31,0.00,,,0.00,WSDL version 426,2013-07-11 21:46:00,
2013-07-11 16:51:00,92.7,57.4,29.18,SE,133,3.6,10.1,30,0.00,,,0.00,WSDL version 426,2013-07-11 21:51:00,
2013-07-11 16:56:00,92.3,56.4,29.18,SSW,203,3.7,7.8,30,0.00,,,0.00,WSDL version 426,2013-07-11 21:56:00,
2013-07-11 17:02:00,91.3,55.9,29.18,WSW,244,2.9,7.8,31,0.00,,,0.00,WSDL version 426,2013-07-11 22:02:00,
2013-07-11 17:08:00,89.2,58.5,29.18,SW,219,4.7,5.6,39,0.04,,,0.04,WSDL version 426,2013-07-11 22:08:00,
2013-07-11 17:13:00,86.7,60.2,29.18,SSW,203,3.9,6.3,42,0.09,,,0.09,WSDL version 426,2013-07-11 22:13:00,
2013-07-11 17:18:00,84.1,61.7,29.18,WSW,238,4.5,6.3,50,0.12,,,0.12,WSDL version 426,2013-07-11 22:18:00,
2013-07-11 17:23:00,82.9,65.2,29.15,SW,225,5.6,7.4,57,0.12,,,0.12,WSDL version 426,2013-07-11 22:23:00,
2013-07-11 17:28:00,82.6,66.2,29.15,SW,222,5.6,8.1,58,0.12,,,0.12,WSDL version 426,2013-07-11 22:28:00,
2013-07-11 17:33:00,82.4,66.5,29.15,WSW,238,5.7,8.1,60,0.12,,,0.12,WSDL version 426,2013-07-11 22:33:00,
2013-07-11 17:38:00,82.3,63.5,29.15,WSW,241,7.5,16.8,51,0.12,,,0.12,WSDL version 426,2013-07-11 22:38:00,
2013-07-11 17:44:00,81.9,63.4,29.15,West,260,6.4,13.0,55,0.12,,,0.12,WSDL version 426,2013-07-11 22:44:00,
2013-07-11 17:49:00,82.4,65.8,29.15,WNW,293,5.5,9.6,58,0.12,,,0.12,WSDL version 426,2013-07-11 22:49:00,
2013-07-11 17:55:00,82.6,65.6,29.18,WNW,293,8.3,12.8,58,0.12,,,0.12,WSDL version 426,2013-07-11 22:55:00,
2013-07-11 18:00:00,82.6,67.3,29.18,WNW,301,9.7,13.2,61,0.17,,,0.17,WSDL version 426,2013-07-11 23:00:00,
2013-07-11 18:05:00,82.6,67.8,29.18,West,281,9.3,13.2,60,0.17,,,0.17,WSDL version 426,2013-07-11 23:05:00,
2013-07-11 18:10:00,82.8,67.0,29.18,NW,307,6.2,13.4,59,0.13,,,0.17,WSDL version 426,2013-07-11 23:10:00,
2013-07-11 18:15:00,82.9,67.1,29.18,NNW,334,9.0,13.4,56,0.08,,,0.17,WSDL version 426,2013-07-11 23:15:00,
2013-07-11 18:20:00,82.8,64.8,29.18,NNW,331,3.8,11.0,54,0.05,,,0.17,WSDL version 426,2013-07-11 23:20:00,
2013-07-11 18:27:00,82.9,64.2,29.18,West,270,3.5,6.0,53,0.05,,,0.17,WSDL version 426,2013-07-11 23:27:00,
2013-07-11 18:33:00,82.6,64.6,29.18,WNW,300,3.1,5.8,56,0.05,,,0.17,WSDL version 426,2013-07-11 23:33:00,
2013-07-11 18:38:00,82.9,66.0,29.15,WNW,301,3.1,4.5,57,0.05,,,0.17,WSDL version 426,2013-07-11 23:38:00,
2013-07-11 18:43:00,82.8,66.5,29.15,SSW,205,1.8,3.8,59,0.05,,,0.17,WSDL version 426,2013-07-11 23:43:00,
2013-07-11 18:49:00,81.6,66.4,29.15,SSW,203,0.1,2.5,61,0.05,,,0.17,WSDL version 426,2013-07-11 23:49:00,
2013-07-11 18:55:00,80.7,67.9,29.15,SW,222,2.6,3.4,68,0.05,,,0.17,WSDL version 426,2013-07-11 23:55:00,
2013-07-11 19:00:00,80.1,68.2,29.15,SW,225,2.7,3.8,67,0.00,,,0.17,WSDL version 426,2013-07-12 00:00:00,
2013-07-11 19:05:00,80.0,68.2,29.15,South,184,1.5,3.8,68,0.00,,,0.17,WSDL version 426,2013-07-12 00:05:00,
2013-07-11 19:10:00,80.4,68.4,29.15,SSE,158,0.0,2.9,66,0.00,,,0.17,WSDL version 426,2013-07-12 00:10:00,
2013-07-11 19:16:00,80.8,68.0,29.15,SSE,158,0.0,0.0,65,0.00,,,0.17,WSDL version 426,2013-07-12 00:16:00,
2013-07-11 19:21:00,81.8,68.6,29.15,WSW,245,0.5,1.1,65,0.00,,,0.17,WSDL version 426,2013-07-12 00:21:00,
2013-07-11 19:26:00,84.1,70.0,29.15,WSW,241,0.0,1.1,61,0.00,,,0.17,WSDL version 426,2013-07-12 00:26:00,
2013-07-11 19:31:00,86.7,70.7,29.15,South,173,0.1,1.3,59,0.00,,,0.17,WSDL version 426,2013-07-12 00:31:00,
2013-07-11 19:36:00,87.8,70.9,29.18,SW,225,0.0,1.3,57,0.00,,,0.17,WSDL version 426,2013-07-12 00:36:00,
2013-07-11 19:41:00,88.8,69.4,29.18,SW,225,0.9,1.6,52,0.00,,,0.17,WSDL version 426,2013-07-12 00:41:00,
2013-07-11 19:46:00,88.9,69.7,29.18,SW,215,1.4,2.5,54,0.00,,,0.17,WSDL version 426,2013-07-12 00:46:00,
2013-07-11 19:51:00,89.3,69.3,29.18,SSW,199,2.3,2.9,52,0.00,,,0.17,WSDL version 426,2013-07-12 00:51:00,
2013-07-11 19:56:00,89.0,68.4,29.18,SSW,203,1.3,2.9,50,0.00,,,0.17,WSDL version 426,2013-07-12 00:56:00,
2013-07-11 20:01:00,88.8,67.5,29.18,SSW,203,1.3,2.0,50,0.00,,,0.17,WSDL version 426,2013-07-12 01:01:00,
2013-07-11 20:06:00,88.3,67.9,29.18,South,177,1.2,2.0,52,0.00,,,0.17,WSDL version 426,2013-07-12 01:06:00,
2013-07-11 20:11:00,88.1,69.1,29.18,South,172,1.3,2.0,54,0.00,,,0.17,WSDL version 426,2013-07-12 01:11:00,
2013-07-11 20:16:00,88.2,69.9,29.18,SW,231,0.6,2.0,55,0.00,,,0.17,WSDL version 426,2013-07-12 01:16:00,
2013-07-11 20:21:00,88.0,69.8,29.18,WSW,240,2.2,3.1,55,0.00,,,0.17,WSDL version 426,2013-07-12 01:21:00,
2013-07-11 20:26:00,86.9,69.5,29.18,WNW,293,2.3,3.1,57,0.00,,,0.17,WSDL version 426,2013-07-12 01:26:00,
2013-07-11 20:32:00,86.0,70.1,29.18,SE,135,1.5,3.1,61,0.00,,,0.17,WSDL version 426,2013-07-12 01:32:00,
2013-07-11 20:37:00,85.7,71.1,29.15,SE,135,1.6,2.0,62,0.00,,,0.17,WSDL version 426,2013-07-12 01:37:00,
2013-07-11 20:42:00,85.0,70.3,29.15,SE,135,1.9,2.5,62,0.00,,,0.17,WSDL version 426,2013-07-12 01:42:00,
2013-07-11 20:47:00,84.2,71.2,29.15,SE,128,1.8,2.5,66,0.00,,,0.17,WSDL version 426,2013-07-12 01:47:00,
2013-07-11 20:52:00,84.2,71.9,29.18,ESE,123,1.3,2.9,67,0.00,,,0.17,WSDL version 426,2013-07-12 01:52:00,
2013-07-11 20:57:00,84.2,71.7,29.18,ESE,116,0.0,2.9,66,0.00,,,0.17,WSDL version 426,2013-07-12 01:57:00,
2013-07-11 21:02:00,83.6,71.0,29.18,ESE,113,0.0,2.5,66,0.00,,,0.17,WSDL version 426,2013-07-12 02:02:00,
2013-07-11 21:07:00,83.5,71.0,29.18,ENE,68,0.0,1.3,66,0.00,,,0.17,WSDL version 426,2013-07-12 02:07:00,
2013-07-11 21:12:00,83.7,71.2,29.18,SW,225,1.8,4.9,66,0.00,,,0.17,WSDL version 426,2013-07-12 02:12:00,
2013-07-11 21:17:00,82.3,70.9,29.18,SW,222,3.0,4.9,68,0.00,,,0.17,WSDL version 426,2013-07-12 02:17:00,
2013-07-11 21:22:00,81.5,70.2,29.18,ESE,113,0.0,4.9,69,0.00,,,0.17,WSDL version 426,2013-07-12 02:22:00,
2013-07-11 21:27:00,81.1,70.1,29.18,SSW,203,1.0,2.5,71,0.00,,,0.17,WSDL version 426,2013-07-12 02:27:00,
2013-07-11 21:32:00,81.2,71.5,29.18,SSW,206,0.0,2.5,74,0.00,,,0.17,WSDL version 426,2013-07-12 02:32:00,
2013-07-11 21:39:00,81.4,72.2,29.18,SW,229,0.0,2.9,73,0.00,,,0.17,WSDL version 426,2013-07-12 02:39:00,
2013-07-11 21:44:00,81.3,71.4,29.18,SW,225,0.0,2.7,72,0.00,,,0.17,WSDL version 426,2013-07-12 02:44:00,
2013-07-11 21:49:00,81.3,72.1,29.18,NW,315,0.1,2.2,75,0.00,,,0.17,WSDL version 426,2013-07-12 02:49:00,
2013-07-11 21:54:00,82.0,73.6,29.18,WNW,293,2.4,2.9,76,0.00,,,0.17,WSDL version 426,2013-07-12 02:54:00,
2013-07-11 21:59:00,82.2,73.3,29.18,WNW,293,0.0,2.9,74,0.00,,,0.17,WSDL version 426,2013-07-12 02:59:00,
2013-07-11 22:04:00,81.8,72.1,29.18,WNW,293,0.0,2.0,72,0.00,,,0.17,WSDL version 426,2013-07-12 03:04:00,
2013-07-11 22:09:00,81.5,71.8,29.18,NE,55,0.0,1.1,74,0.00,,,0.17,WSDL version 426,2013-07-12 03:09:00,
2013-07-11 22:14:00,81.7,73.0,29.18,ENE,68,0.0,1.1,75,0.00,,,0.17,WSDL version 426,2013-07-12 03:14:00,
2013-07-11 22:19:00,81.7,72.5,29.18,SSW,203,0.0,0.0,73,0.00,,,0.17,WSDL version 426,2013-07-12 03:19:00,
2013-07-11 22:24:00,80.7,71.0,29.18,SSW,203,0.0,0.0,73,0.00,,,0.17,WSDL version 426,2013-07-12 03:24:00,
2013-07-11 22:29:00,80.3,71.5,29.18,WSW,251,0.0,2.5,76,0.00,,,0.17,WSDL version 426,2013-07-12 03:29:00,
2013-07-11 22:34:00,80.7,72.7,29.18,NNE,17,1.6,3.1,77,0.00,,,0.17,WSDL version 426,2013-07-12 03:34:00,
2013-07-11 22:39:00,81.1,73.0,29.18,North,8,1.0,3.1,76,0.00,,,0.17,WSDL version 426,2013-07-12 03:39:00,
2013-07-11 22:45:00,80.9,71.9,29.18,North,360,0.0,2.5,74,0.00,,,0.17,WSDL version 426,2013-07-12 03:45:00,
2013-07-11 22:51:00,80.6,72.0,29.18,SSW,193,0.0,0.0,76,0.00,,,0.17,WSDL version 426,2013-07-12 03:51:00,
2013-07-11 22:56:00,80.8,72.5,29.18,SW,228,0.0,0.0,76,0.00,,,0.17,WSDL version 426,2013-07-12 03:56:00,
2013-07-11 23:01:00,80.8,72.3,29.18,SE,135,0.0,0.0,74,0.00,,,0.17,WSDL version 426,2013-07-12 04:01:00,
2013-07-11 23:02:00,80.7,71.9,29.18,SE,135,0.0,0.0,74,0.00,,,0.17,WSDL version 426,2013-07-12 04:02:00,
2013-07-11 23:03:00,80.5,71.6,29.18,SE,141,0.0,0.0,74,0.00,,,0.17,WSDL version 426,2013-07-12 04:03:00,
2013-07-11 23:08:00,79.8,70.8,29.21,SSE,168,0.1,1.1,74,0.00,,,0.17,WSDL version 426,2013-07-12 04:08:00,
2013-07-11 23:09:00,79.6,70.8,29.21,South,190,0.5,1.6,75,0.00,,,0.17,WSDL version 426,2013-07-12 04:09:00,
2013-07-11 23:12:00,79.3,70.9,29.21,SSW,212,1.6,2.5,77,0.00,,,0.17,WSDL version 426,2013-07-12 04:12:00,
2013-07-11 23:20:00,79.5,72.3,29.21,South,183,1.0,2.5,79,0.00,,,0.17,WSDL version 426,2013-07-12 04:20:00,
2013-07-11 23:25:00,79.1,71.2,29.18,South,180,0.0,2.0,77,0.00,,,0.17,WSDL version 426,2013-07-12 04:25:00,
2013-07-11 23:31:00,78.5,71.0,29.18,South,174,0.0,2.2,79,0.00,,,0.17,WSDL version 426,2013-07-12 04:31:00,
2013-07-11 23:36:00,79.0,72.5,29.21,WSW,248,0.0,1.6,82,0.00,,,0.17,WSDL version 426,2013-07-12 04:36:00,
2013-07-11 23:41:00,79.4,72.8,29.21,SSE,166,0.0,1.3,79,0.00,,,0.17,WSDL version 426,2013-07-12 04:41:00,
2013-07-11 23:46:00,79.0,71.6,29.21,SSE,158,0.0,1.1,78,0.00,,,0.17,WSDL version 426,2013-07-12 04:46:00,
2013-07-11 23:51:00,78.5,71.1,29.21,SSE,158,0.0,0.0,78,0.00,,,0.17,WSDL version 426,2013-07-12 04:51:00,
2013-07-11 23:56:00,78.5,71.5,29.21,SW,231,0.0,1.3,80,0.00,,,0.17,WSDL version 426,2013-07-12 04:56:00,